Time;durP1;ratioP1;P1;durP2;ratioP2;P2;SDS_P1;SDS_P2;PMS_P1;PMS_P2;Temp;Humidity;BMP_temperature;BMP_pressure;BME280_temperature;BME280_humidity;BME280_pressure;Samples;Min_cycle;Max_cycle;Signal;HPM_P1;HPM_P2
2021/09/26 00:01:22;;;;;;;9.15;5.97;;;20.20;67.00;;;;;;5050223;28;20029;-82
2021/09/26 00:03:48;;;;;;;7.53;5.75;;;20.10;67.00;;;;;;5055327;28;20036;-81
2021/09/26 00:06:14;;;;;;;6.95;5.57;;;20.10;67.10;;;;;;5015340;28;20508;-81
2021/09/26 00:08:40;;;;;;;7.30;5.18;;;20.20;67.10;;;;;;5040446;28;20419;-81
2021/09/26 00:11:06;;;;;;;7.93;5.38;;;20.10;67.10;;;;;;5057178;28;20071;-81
2021/09/26 00:13:34;;;;;;;7.10;5.63;;;20.10;67.10;;;;;;5037736;28;20047;-81
2021/09/26 00:15:59;;;;;;;7.47;5.32;;;20.10;67.10;;;;;;5060390;28;20086;-80
2021/09/26 00:18:25;;;;;;;7.28;5.50;;;20.10;67.20;;;;;;5050108;28;20029;-80
2021/09/26 00:20:51;;;;;;;7.20;5.43;;;20.00;67.10;;;;;;5046402;28;20128;-80
2021/09/26 00:23:18;;;;;;;6.97;5.38;;;20.00;67.10;;;;;;5075281;28;20033;-80
2021/09/26 00:25:47;;;;;;;7.85;5.22;;;20.00;67.10;;;;;;5049383;28;20371;-80
2021/09/26 00:28:14;;;;;;;7.03;5.68;;;20.00;67.20;;;;;;5010164;28;20151;-82
2021/09/26 00:30:40;;;;;;;6.95;5.13;;;20.00;67.20;;;;;;5040124;28;20037;-80
2021/09/26 00:33:05;;;;;;;6.93;5.25;;;19.90;67.20;;;;;;5057438;28;20465;-82
2021/09/26 00:35:31;;;;;;;7.20;5.30;;;19.90;67.20;;;;;;5035653;28;20041;-81
2021/09/26 00:37:57;;;;;;;7.07;5.50;;;19.90;67.30;;;;;;5058035;28;20100;-80
2021/09/26 00:40:23;;;;;;;7.43;5.45;;;19.90;67.30;;;;;;5038776;28;20129;-79
2021/09/26 00:42:49;;;;;;;6.68;5.03;;;19.90;67.30;;;;;;5051686;28;20033;-80
2021/09/26 00:45:16;;;;;;;6.35;4.68;;;19.80;67.20;;;;;;5049781;28;20541;-80
2021/09/26 00:47:42;;;;;;;7.57;5.68;;;19.80;67.30;;;;;;5029729;28;20013;-82
2021/09/26 00:50:08;;;;;;;6.78;5.00;;;19.80;67.30;;;;;;5040076;28;20036;-81
2021/09/26 00:52:37;;;;;;;7.28;5.60;;;19.80;67.30;;;;;;5055562;28;20108;-80
2021/09/26 00:55:04;;;;;;;7.70;5.63;;;19.80;67.40;;;;;;5047692;28;20063;-80
2021/09/26 00:57:30;;;;;;;7.65;5.38;;;19.80;67.40;;;;;;5043974;28;20025;-80
2021/09/26 00:59:58;;;;;;;7.18;5.22;;;19.70;67.30;;;;;;5055353;28;20040;-81
2021/09/26 01:02:24;;;;;;;7.25;5.55;;;19.70;67.40;;;;;;5033484;28;20497;-81
2021/09/26 01:04:50;;;;;;;6.47;5.13;;;19.70;67.40;;;;;;5047014;28;20673;-82
2021/09/26 01:07:23;;;;;;;6.75;5.22;;;19.70;67.40;;;;;;5024968;28;20029;-80
2021/09/26 01:10:46;;;;;;;7.63;5.78;;;19.70;67.50;;;;;;5031492;28;20044;-81
2021/09/26 01:13:30;;;;;;;6.75;4.93;;;19.70;67.60;;;;;;5024183;28;20116;-81
2021/09/26 01:16:26;;;;;;;6.83;4.77;;;19.60;67.50;;;;;;5032276;28;20029;-80
2021/09/26 01:19:13;;;;;;;6.78;4.70;;;19.60;67.60;;;;;;5023015;28;20033;-80
2021/09/26 01:21:57;;;;;;;6.60;4.95;;;19.60;67.50;;;;;;5024010;28;20056;-80
2021/09/26 01:24:58;;;;;;;6.68;4.50;;;19.60;67.70;;;;;;5047429;28;20064;-81
2021/09/26 01:28:02;;;;;;;6.45;4.85;;;19.50;67.60;;;;;;5039640;28;20032;-82
2021/09/26 01:30:34;;;;;;;5.63;4.47;;;19.50;67.70;;;;;;5040154;28;20138;-81
2021/09/26 01:33:08;;;;;;;6.18;4.70;;;19.50;67.60;;;;;;5053481;28;20039;-80
2021/09/26 01:35:42;;;;;;;6.32;4.85;;;19.40;67.60;;;;;;5064456;28;20627;-80
2021/09/26 01:38:20;;;;;;;6.80;5.18;;;19.50;67.70;;;;;;5056760;28;20389;-81
2021/09/26 01:40:52;;;;;;;7.20;5.20;;;19.40;67.70;;;;;;5035112;28;20170;-80
2021/09/26 01:43:21;;;;;;;6.47;4.78;;;19.40;67.60;;;;;;5047614;28;20025;-81
2021/09/26 01:45:52;;;;;;;7.25;5.40;;;19.40;67.60;;;;;;5037594;28;20017;-80
2021/09/26 01:48:33;;;;;;;7.22;5.30;;;19.40;67.70;;;;;;5044697;28;20025;-81
2021/09/26 01:51:00;;;;;;;7.72;5.38;;;19.40;67.70;;;;;;5038461;28;20036;-81
2021/09/26 01:53:28;;;;;;;6.07;4.50;;;19.40;67.70;;;;;;5036945;28;20488;-81
2021/09/26 01:55:56;;;;;;;6.50;4.85;;;19.40;67.70;;;;;;5054591;28;20036;-81
2021/09/26 01:58:22;;;;;;;6.32;4.90;;;19.30;67.70;;;;;;5036970;28;20029;-81
2021/09/26 02:00:48;;;;;;;6.82;5.10;;;19.30;67.70;;;;;;5060538;28;20024;-81
2021/09/26 02:03:18;;;;;;;6.57;4.85;;;19.30;67.70;;;;;;5046100;28;20025;-80
2021/09/26 02:05:45;;;;;;;6.68;4.68;;;19.30;67.70;;;;;;5037189;28;20517;-80
2021/09/26 02:08:11;;;;;;;6.53;4.95;;;19.30;67.70;;;;;;5055554;28;20104;-80
2021/09/26 02:10:38;;;;;;;7.00;5.25;;;19.30;67.80;;;;;;5036100;28;20084;-80
2021/09/26 02:13:06;;;;;;;6.63;5.43;;;19.30;67.70;;;;;;5046650;28;20033;-81
2021/09/26 02:15:32;;;;;;;7.97;5.20;;;19.30;67.80;;;;;;5068913;28;20115;-80
2021/09/26 02:18:02;;;;;;;6.97;5.03;;;19.20;67.70;;;;;;5030550;28;20442;-80
2021/09/26 02:20:29;;;;;;;5.95;4.90;;;19.20;67.70;;;;;;5040900;28;20110;-81
2021/09/26 02:22:57;;;;;;;6.25;5.07;;;19.20;67.70;;;;;;5037726;28;20035;-81
2021/09/26 02:25:23;;;;;;;7.13;5.03;;;19.20;67.80;;;;;;5039962;28;20028;-80
2021/09/26 02:27:49;;;;;;;6.38;5.00;;;19.20;67.80;;;;;;5054903;28;20041;-81
2021/09/26 02:30:16;;;;;;;6.97;5.13;;;19.10;67.70;;;;;;5025104;28;20063;-81
2021/09/26 02:32:43;;;;;;;7.25;5.38;;;19.20;67.80;;;;;;5052735;28;20057;-81
2021/09/26 02:35:10;;;;;;;6.50;5.00;;;19.10;67.80;;;;;;5049075;28;20029;-81
2021/09/26 02:37:36;;;;;;;6.95;5.07;;;19.10;67.80;;;;;;5063420;28;20051;-82
2021/09/26 02:40:04;;;;;;;6.47;5.07;;;19.10;67.80;;;;;;5045135;28;20131;-80
2021/09/26 02:42:38;;;;;;;7.47;5.15;;;19.10;67.80;;;;;;5046891;28;20041;-82
2021/09/26 02:45:11;;;;;;;6.65;4.32;;;19.10;67.90;;;;;;5048098;28;20049;-81
2021/09/26 02:47:48;;;;;;;6.47;4.50;;;19.00;67.90;;;;;;5056636;28;20029;-81
2021/09/26 02:50:16;;;;;;;5.97;4.70;;;19.00;67.90;;;;;;5048307;28;20032;-81
2021/09/26 02:52:43;;;;;;;7.05;5.20;;;19.00;67.90;;;;;;5019944;28;20098;-81
2021/09/26 02:55:10;;;;;;;6.65;5.15;;;19.00;67.90;;;;;;5026815;28;20435;-82
2021/09/26 02:57:36;;;;;;;6.25;4.70;;;19.00;68.00;;;;;;5046946;28;20026;-80
2021/09/26 03:00:05;;;;;;;7.32;4.80;;;18.90;67.90;;;;;;5069780;28;20060;-81
2021/09/26 03:02:33;;;;;;;6.45;4.93;;;19.00;68.00;;;;;;5057256;28;20079;-81
2021/09/26 03:04:58;;;;;;;6.22;4.85;;;18.90;68.00;;;;;;5043548;28;20120;-80
2021/09/26 03:07:24;;;;;;;7.15;5.05;;;18.90;68.00;;;;;;5035229;28;20060;-81
2021/09/26 03:09:51;;;;;;;6.75;5.00;;;18.90;68.00;;;;;;5059551;28;20087;-81
2021/09/26 03:12:19;;;;;;;6.60;4.68;;;18.90;68.00;;;;;;5065316;28;20071;-81
2021/09/26 03:14:46;;;;;;;6.93;5.10;;;18.90;68.10;;;;;;5054802;28;20132;-81
2021/09/26 03:17:12;;;;;;;7.15;5.05;;;18.80;68.00;;;;;;5045028;28;20112;-81
2021/09/26 03:19:38;;;;;;;6.45;4.82;;;18.80;68.10;;;;;;5060040;28;20021;-81
2021/09/26 03:22:05;;;;;;;6.22;4.80;;;18.80;68.10;;;;;;5036973;28;20029;-80
2021/09/26 03:24:32;;;;;;;6.95;4.97;;;18.80;68.20;;;;;;5049763;28;20536;-82
2021/09/26 03:27:00;;;;;;;6.43;4.75;;;18.80;68.10;;;;;;5029665;28;20025;-80
2021/09/26 03:29:26;;;;;;;6.20;4.80;;;18.80;68.20;;;;;;5060111;28;20060;-83
2021/09/26 03:31:52;;;;;;;7.28;4.90;;;18.80;68.20;;;;;;5059711;28;20029;-80
2021/09/26 03:34:18;;;;;;;7.70;5.00;;;18.70;68.20;;;;;;5038732;28;20021;-82
2021/09/26 03:36:43;;;;;;;6.40;4.70;;;18.70;68.20;;;;;;5060922;28;20025;-80
2021/09/26 03:39:10;;;;;;;6.63;5.13;;;18.80;68.20;;;;;;5035524;28;20033;-82
2021/09/26 03:41:36;;;;;;;6.50;4.95;;;18.70;68.20;;;;;;5059810;28;20479;-82
2021/09/26 03:44:02;;;;;;;6.03;4.63;;;18.70;68.20;;;;;;5035179;28;20033;-81
2021/09/26 03:46:28;;;;;;;6.60;4.53;;;18.70;68.30;;;;;;5051170;28;20029;-82
2021/09/26 03:48:54;;;;;;;6.35;4.85;;;18.70;68.30;;;;;;5045047;28;20392;-80
2021/09/26 03:51:20;;;;;;;6.53;4.63;;;18.70;69.00;;;;;;5039950;28;20087;-81
2021/09/26 03:53:45;;;;;;;6.45;4.72;;;18.60;68.30;;;;;;5023037;28;20060;-81
2021/09/26 03:56:11;;;;;;;6.60;4.65;;;18.60;68.40;;;;;;5063769;28;20021;-83
2021/09/26 03:58:37;;;;;;;7.03;4.40;;;18.60;68.40;;;;;;5025559;28;20124;-81
2021/09/26 04:01:03;;;;;;;7.15;5.25;;;18.60;68.40;;;;;;5042261;28;20033;-81
2021/09/26 04:03:31;;;;;;;6.72;4.90;;;18.60;68.40;;;;;;5038863;28;20100;-83
2021/09/26 04:05:57;;;;;;;6.07;4.57;;;18.60;68.40;;;;;;5038898;28;20037;-80
2021/09/26 04:08:22;;;;;;;6.63;4.97;;;18.60;68.50;;;;;;5025762;28;20033;-81
2021/09/26 04:10:48;;;;;;;5.95;4.18;;;18.60;68.50;;;;;;5050493;28;20053;-82
2021/09/26 04:13:14;;;;;;;6.38;5.03;;;18.50;68.50;;;;;;5061354;28;20470;-81
2021/09/26 04:15:40;;;;;;;6.43;4.85;;;18.50;68.50;;;;;;5030929;28;20106;-81
2021/09/26 04:18:05;;;;;;;6.28;4.72;;;18.60;68.60;;;;;;5051379;28;20435;-81
2021/09/26 04:20:31;;;;;;;6.65;5.07;;;18.50;68.60;;;;;;5052106;28;20369;-83
2021/09/26 04:22:57;;;;;;;6.45;4.90;;;18.50;68.60;;;;;;5057887;28;20026;-81
2021/09/26 04:25:23;;;;;;;6.50;4.78;;;18.50;68.60;;;;;;5048741;28;20376;-81
2021/09/26 04:27:49;;;;;;;6.63;4.60;;;18.50;68.60;;;;;;5039976;28;20044;-81
2021/09/26 04:30:15;;;;;;;7.32;4.95;;;18.50;68.60;;;;;;5038973;28;20049;-81
2021/09/26 04:32:40;;;;;;;6.10;4.45;;;18.50;68.60;;;;;;5084849;28;20454;-81
2021/09/26 04:35:07;;;;;;;6.22;4.53;;;18.50;68.60;;;;;;5059192;28;20082;-82
2021/09/26 04:37:33;;;;;;;6.15;4.55;;;18.50;68.70;;;;;;5059736;28;20082;-81
2021/09/26 04:39:59;;;;;;;6.22;4.72;;;18.50;68.70;;;;;;5026004;28;20029;-81
2021/09/26 04:42:25;;;;;;;6.05;4.75;;;18.50;68.70;;;;;;5050711;28;20393;-81
2021/09/26 04:44:50;;;;;;;5.57;4.13;;;18.50;68.70;;;;;;5050417;28;20079;-81
2021/09/26 04:47:16;;;;;;;6.07;4.70;;;18.50;68.70;;;;;;5034170;28;20068;-81
2021/09/26 04:49:42;;;;;;;5.85;4.50;;;18.50;68.90;;;;;;5034033;28;20044;-80
2021/09/26 04:52:08;;;;;;;6.25;4.85;;;18.50;68.80;;;;;;5026082;28;20104;-81
2021/09/26 04:54:34;;;;;;;5.70;4.13;;;18.50;68.80;;;;;;5018016;28;20439;-81
2021/09/26 04:56:59;;;;;;;5.97;4.53;;;18.50;68.80;;;;;;5032427;28;20064;-81
2021/09/26 04:59:25;;;;;;;6.05;4.47;;;18.40;68.80;;;;;;5035504;28;20029;-81
2021/09/26 05:01:51;;;;;;;7.15;4.72;;;18.40;68.80;;;;;;5052458;28;20388;-81
2021/09/26 05:04:17;;;;;;;6.68;4.85;;;18.40;68.80;;;;;;5013910;28;20047;-81
2021/09/26 05:06:43;;;;;;;6.88;4.72;;;18.40;68.80;;;;;;5056580;28;20469;-81
2021/09/26 05:09:09;;;;;;;6.03;4.63;;;18.40;68.80;;;;;;5038703;28;20433;-82
2021/09/26 05:11:35;;;;;;;6.78;5.03;;;18.40;68.80;;;;;;5029637;28;20041;-81
2021/09/26 05:14:00;;;;;;;6.35;4.70;;;18.40;68.80;;;;;;5037592;28;20052;-80
2021/09/26 05:16:27;;;;;;;6.03;4.35;;;18.40;68.90;;;;;;5045840;28;20094;-81
2021/09/26 05:18:52;;;;;;;5.55;4.55;;;18.40;68.90;;;;;;5076822;28;20036;-81
2021/09/26 05:21:19;;;;;;;5.75;4.43;;;18.40;68.90;;;;;;5056930;28;20470;-81
2021/09/26 05:23:44;;;;;;;5.82;4.43;;;18.40;69.60;;;;;;5037856;28;20124;-81
2021/09/26 05:26:10;;;;;;;6.93;4.50;;;18.40;69.00;;;;;;5054292;28;20067;-80
2021/09/26 05:28:36;;;;;;;6.18;4.60;;;18.40;69.00;;;;;;5058050;28;20025;-82
2021/09/26 05:31:02;;;;;;;6.82;4.82;;;18.40;69.00;;;;;;5041836;28;20033;-81
2021/09/26 05:33:29;;;;;;;6.70;4.82;;;18.40;69.00;;;;;;5030359;28;20063;-80
2021/09/26 05:35:56;;;;;;;6.45;4.88;;;18.40;69.00;;;;;;5059847;28;20037;-81
2021/09/26 05:38:22;;;;;;;6.47;4.75;;;18.40;69.00;;;;;;5063130;28;20108;-81
2021/09/26 05:40:47;;;;;;;5.78;4.80;;;18.40;69.00;;;;;;5043997;28;20119;-81
2021/09/26 05:43:13;;;;;;;5.82;4.30;;;18.40;69.00;;;;;;5060272;28;20032;-80
2021/09/26 05:45:39;;;;;;;5.43;4.13;;;18.40;69.00;;;;;;5040496;28;20112;-81
2021/09/26 05:48:05;;;;;;;5.57;4.13;;;18.40;69.10;;;;;;5038298;28;20500;-81
2021/09/26 05:50:31;;;;;;;6.93;4.63;;;18.40;69.10;;;;;;5056206;28;20037;-80
2021/09/26 05:52:57;;;;;;;5.93;4.20;;;18.40;69.10;;;;;;5063850;28;20086;-80
2021/09/26 05:55:24;;;;;;;5.68;4.07;;;18.40;69.10;;;;;;5036632;28;20031;-81
2021/09/26 05:57:50;;;;;;;6.60;4.60;;;18.40;69.10;;;;;;5062968;28;20119;-81
2021/09/26 06:00:17;;;;;;;5.70;4.28;;;18.40;69.70;;;;;;5037532;28;20056;-81
2021/09/26 06:02:44;;;;;;;5.85;4.15;;;18.40;69.10;;;;;;5040482;28;20025;-81
2021/09/26 06:05:11;;;;;;;6.10;4.35;;;18.40;69.10;;;;;;5036643;28;20033;-81
2021/09/26 06:07:37;;;;;;;6.25;4.28;;;18.40;69.20;;;;;;5033663;28;20045;-80
2021/09/26 06:10:05;;;;;;;5.88;4.25;;;18.40;69.20;;;;;;5044811;28;20068;-83
2021/09/26 06:12:32;;;;;;;5.40;3.85;;;18.40;69.20;;;;;;5041645;28;20033;-80
2021/09/26 06:14:58;;;;;;;6.32;4.47;;;18.40;69.20;;;;;;5056652;28;20083;-81
2021/09/26 06:17:24;;;;;;;5.80;4.30;;;18.40;69.20;;;;;;5017933;28;20040;-82
2021/09/26 06:19:52;;;;;;;5.50;3.92;;;18.40;69.20;;;;;;5019689;28;20037;-81
2021/09/26 06:22:19;;;;;;;5.90;4.50;;;18.40;69.90;;;;;;5069451;28;20029;-81
2021/09/26 06:24:45;;;;;;;6.55;4.45;;;18.40;69.30;;;;;;5028153;28;20044;-81
2021/09/26 06:27:12;;;;;;;5.30;3.80;;;18.40;69.30;;;;;;5033289;28;20044;-81
2021/09/26 06:29:39;;;;;;;6.93;4.30;;;18.40;69.30;;;;;;5061419;28;20037;-80
2021/09/26 06:32:05;;;;;;;6.15;4.40;;;18.40;69.30;;;;;;5024318;28;20025;-83
2021/09/26 06:34:30;;;;;;;6.38;4.70;;;18.40;69.40;;;;;;5071975;28;20076;-81
2021/09/26 06:36:57;;;;;;;6.40;4.32;;;18.40;69.30;;;;;;5042802;28;20021;-81
2021/09/26 06:39:24;;;;;;;5.97;4.13;;;18.40;69.40;;;;;;5060555;28;20037;-81
2021/09/26 06:41:50;;;;;;;5.60;4.22;;;18.40;69.40;;;;;;5043409;28;20044;-81
2021/09/26 06:44:16;;;;;;;5.55;4.28;;;18.40;69.40;;;;;;5013071;28;20388;-80
2021/09/26 06:46:42;;;;;;;5.25;3.92;;;18.40;69.40;;;;;;5052126;28;20043;-80
2021/09/26 06:49:08;;;;;;;4.85;3.78;;;18.40;69.40;;;;;;5003431;28;20121;-80
2021/09/26 06:51:34;;;;;;;5.60;4.20;;;18.40;69.40;;;;;;5012388;28;20112;-80
2021/09/26 06:54:00;;;;;;;5.63;4.25;;;18.40;69.40;;;;;;5059220;28;20045;-80
2021/09/26 06:56:26;;;;;;;5.55;4.40;;;18.40;69.40;;;;;;5055861;28;20094;-79
2021/09/26 06:58:52;;;;;;;6.13;4.68;;;18.40;69.40;;;;;;5043526;28;20026;-80
2021/09/26 07:01:18;;;;;;;5.07;3.72;;;18.40;69.50;;;;;;5060147;28;20060;-80
2021/09/26 07:03:44;;;;;;;5.95;3.97;;;18.40;69.50;;;;;;5043715;28;20037;-81
2021/09/26 07:06:09;;;;;;;5.90;4.38;;;18.40;69.50;;;;;;5033110;28;20107;-80
2021/09/26 07:08:36;;;;;;;5.65;4.13;;;18.40;69.50;;;;;;5046795;28;20163;-81
2021/09/26 07:11:03;;;;;;;5.53;4.18;;;18.40;69.50;;;;;;5056566;28;20091;-80
2021/09/26 07:13:29;;;;;;;5.25;3.78;;;18.40;69.60;;;;;;5051161;28;20037;-80
2021/09/26 07:15:55;;;;;;;5.28;3.95;;;18.40;69.50;;;;;;5054338;28;20041;-81
2021/09/26 07:18:20;;;;;;;5.93;3.90;;;18.40;69.60;;;;;;5064677;28;20037;-80
2021/09/26 07:20:46;;;;;;;5.45;4.00;;;18.40;69.60;;;;;;5055871;28;20468;-79
2021/09/26 07:23:12;;;;;;;5.68;4.00;;;18.50;69.70;;;;;;5050301;28;20426;-80
2021/09/26 07:25:38;;;;;;;5.25;3.80;;;18.50;69.60;;;;;;5056502;28;20044;-80
2021/09/26 07:28:05;;;;;;;5.30;4.03;;;18.50;69.70;;;;;;5056206;28;20036;-80
2021/09/26 07:30:31;;;;;;;5.50;4.05;;;18.50;69.70;;;;;;5061310;28;20063;-80
2021/09/26 07:32:56;;;;;;;5.38;3.58;;;18.50;69.60;;;;;;5060113;28;20343;-80
2021/09/26 07:35:22;;;;;;;5.60;3.97;;;18.50;69.70;;;;;;5060169;28;20032;-80
2021/09/26 07:37:49;;;;;;;6.03;4.20;;;18.50;69.60;;;;;;5060629;28;20029;-80
2021/09/26 07:40:15;;;;;;;5.93;4.07;;;18.50;69.70;;;;;;5062848;28;20074;-79
2021/09/26 07:42:40;;;;;;;5.07;3.97;;;18.60;69.70;;;;;;5043993;28;20029;-80
2021/09/26 07:45:11;;;;;;;5.40;3.97;;;18.50;69.60;;;;;;5048053;28;20052;-80
2021/09/26 07:47:38;;;;;;;4.63;3.65;;;18.50;69.60;;;;;;5043209;28;20039;-79
2021/09/26 07:50:04;;;;;;;5.65;3.95;;;18.60;69.70;;;;;;5054444;28;20041;-80
2021/09/26 07:52:30;;;;;;;4.75;3.63;;;18.60;69.70;;;;;;5051676;28;20423;-81
2021/09/26 07:54:57;;;;;;;5.63;4.30;;;18.60;69.70;;;;;;5034985;28;20037;-80
2021/09/26 07:57:24;;;;;;;5.03;3.55;;;18.60;69.70;;;;;;5058826;28;20096;-82
2021/09/26 07:59:50;;;;;;;5.70;3.65;;;18.60;69.70;;;;;;5063822;28;20057;-80
2021/09/26 08:02:16;;;;;;;4.72;3.53;;;18.60;69.70;;;;;;5044745;28;20122;-81
2021/09/26 08:04:42;;;;;;;5.15;3.95;;;18.70;69.80;;;;;;5031377;28;20462;-79
2021/09/26 08:07:08;;;;;;;5.05;3.90;;;18.70;69.70;;;;;;5062038;28;20029;-79
2021/09/26 08:09:35;;;;;;;5.15;3.92;;;18.70;69.70;;;;;;5035005;28;20045;-78
2021/09/26 08:12:02;;;;;;;6.10;4.40;;;18.70;69.70;;;;;;5019922;28;20102;-76
2021/09/26 08:14:27;;;;;;;4.78;3.58;;;18.70;69.80;;;;;;5052583;28;20115;-78
2021/09/26 08:16:53;;;;;;;6.05;4.20;;;18.80;69.80;;;;;;5044029;28;20064;-78
2021/09/26 08:19:21;;;;;;;5.70;4.00;;;18.80;69.80;;;;;;5046460;28;20532;-77
2021/09/26 08:21:48;;;;;;;5.70;3.95;;;18.80;69.80;;;;;;5042226;28;20099;-79
2021/09/26 08:24:14;;;;;;;5.70;4.60;;;18.80;69.80;;;;;;5058209;28;20500;-79
2021/09/26 08:26:40;;;;;;;5.35;4.28;;;18.90;69.90;;;;;;5037451;28;20025;-78
2021/09/26 08:29:06;;;;;;;4.90;3.70;;;18.90;69.90;;;;;;5038304;28;20083;-79
2021/09/26 08:31:32;;;;;;;5.53;4.35;;;18.90;69.90;;;;;;5060462;28;20416;-80
2021/09/26 08:33:57;;;;;;;5.60;4.13;;;18.90;69.90;;;;;;5059471;28;20115;-81
2021/09/26 08:36:23;;;;;;;5.63;4.03;;;18.90;69.90;;;;;;5060128;28;20031;-79
2021/09/26 08:38:49;;;;;;;5.68;3.90;;;19.00;69.90;;;;;;5034083;28;20087;-80
2021/09/26 08:41:17;;;;;;;6.35;4.35;;;19.00;69.90;;;;;;5051353;28;20029;-80
2021/09/26 08:43:47;;;;;;;4.93;4.10;;;19.00;70.00;;;;;;5054666;28;20025;-80
2021/09/26 08:46:14;;;;;;;4.70;3.78;;;19.10;70.10;;;;;;5062516;28;20021;-80
2021/09/26 08:48:41;;;;;;;6.55;4.28;;;19.10;70.10;;;;;;5029877;28;20047;-81
2021/09/26 08:51:07;;;;;;;5.78;4.20;;;19.10;70.10;;;;;;5063800;28;20090;-81
2021/09/26 08:53:33;;;;;;;5.30;4.30;;;19.10;70.10;;;;;;5014407;28;20116;-80
2021/09/26 08:55:59;;;;;;;5.18;4.43;;;19.20;70.10;;;;;;5058965;28;20113;-80
2021/09/26 08:58:25;;;;;;;5.03;4.07;;;19.20;70.10;;;;;;5044480;28;20060;-80
2021/09/26 09:00:51;;;;;;;5.85;4.30;;;19.30;70.00;;;;;;5054870;28;20037;-81
2021/09/26 09:03:17;;;;;;;6.30;4.68;;;19.30;70.10;;;;;;5061145;28;20373;-80
2021/09/26 09:05:43;;;;;;;6.18;4.70;;;19.30;70.10;;;;;;5052248;28;20033;-80
2021/09/26 09:08:15;;;;;;;6.93;4.85;;;19.30;70.10;;;;;;5065131;28;20029;-79
2021/09/26 09:10:44;;;;;;;6.20;4.50;;;19.40;70.30;;;;;;5062336;28;20059;-81
2021/09/26 09:13:11;;;;;;;6.00;4.43;;;19.40;70.30;;;;;;5044335;28;20043;-80
2021/09/26 09:15:40;;;;;;;5.43;4.35;;;19.50;70.30;;;;;;5034077;28;20509;-81
2021/09/26 09:18:06;;;;;;;5.78;4.10;;;19.50;70.40;;;;;;5055138;28;20029;-80
2021/09/26 09:20:34;;;;;;;7.20;4.63;;;19.60;70.50;;;;;;5068504;28;20461;-81
2021/09/26 09:23:11;;;;;;;6.05;4.38;;;19.60;70.60;;;;;;5063661;28;20039;-80
2021/09/26 09:25:47;;;;;;;5.38;4.22;;;19.60;70.70;;;;;;5047030;28;20376;-83
2021/09/26 09:28:16;;;;;;;6.38;4.18;;;19.70;70.70;;;;;;5051654;28;20025;-83
2021/09/26 09:30:54;;;;;;;5.88;4.65;;;19.70;70.60;;;;;;5044708;28;20119;-83
2021/09/26 09:33:22;;;;;;;5.78;4.28;;;19.80;70.80;;;;;;5063249;28;20026;-84
2021/09/26 09:35:54;;;;;;;6.20;4.85;;;19.80;70.70;;;;;;5046685;28;20394;-83
2021/09/26 09:38:40;;;;;;;5.40;4.43;;;19.90;70.90;;;;;;5055698;28;20074;-83
2021/09/26 09:41:06;;;;;;;5.63;4.47;;;19.90;71.10;;;;;;5039380;28;20493;-84
2021/09/26 09:43:48;;;;;;;5.70;4.60;;;20.00;70.90;;;;;;5042626;28;20100;-85
2021/09/26 09:46:26;;;;;;;7.75;5.50;;;20.00;71.20;;;;;;5030406;28;20032;-86
2021/09/26 09:49:10;;;;;;;6.25;5.05;;;20.10;71.10;;;;;;5048909;28;20037;-86
2021/09/26 09:51:57;;;;;;;5.80;4.68;;;20.20;71.30;;;;;;5054347;28;20037;-86
2021/09/26 09:54:38;;;;;;;5.72;4.65;;;20.30;71.30;;;;;;5048089;28;20078;-86
2021/09/26 09:57:25;;;;;;;6.28;5.30;;;20.30;71.20;;;;;;5051576;28;20478;-86
2021/09/26 09:59:51;;;;;;;5.93;4.43;;;20.40;71.20;;;;;;5049909;28;20035;-86
2021/09/26 10:02:17;;;;;;;5.47;4.30;;;20.40;71.10;;;;;;5017523;28;20025;-87
2021/09/26 10:04:45;;;;;;;5.68;4.72;;;20.50;71.10;;;;;;5056118;28;20075;-86
2021/09/26 10:07:27;;;;;;;6.75;5.30;;;20.50;71.20;;;;;;5038901;28;20116;-86
2021/09/26 10:09:54;;;;;;;6.47;5.07;;;20.60;71.30;;;;;;5066441;28;20076;-87
2021/09/26 10:12:28;;;;;;;5.82;5.03;;;20.70;71.30;;;;;;5055497;28;20028;-86
2021/09/26 10:14:58;;;;;;;5.75;4.88;;;20.70;71.40;;;;;;5049607;28;20032;-87
2021/09/26 10:17:25;;;;;;;6.45;5.63;;;20.80;71.30;;;;;;5043343;28;20107;-85
2021/09/26 10:19:51;;;;;;;7.00;5.45;;;20.90;71.40;;;;;;5037511;28;20112;-86
2021/09/26 10:22:18;;;;;;;6.95;5.40;;;20.90;71.40;;;;;;5034643;28;20385;-87
2021/09/26 10:24:56;;;;;;;6.25;5.35;;;21.00;71.50;;;;;;5047429;28;20025;-87
2021/09/26 10:27:28;;;;;;;5.53;4.10;;;21.00;71.50;;;;;;5054388;28;20032;-86
2021/09/26 10:30:03;;;;;;;6.20;5.25;;;21.10;71.60;;;;;;5046856;28;20068;-87
2021/09/26 10:32:29;;;;;;;5.63;4.32;;;21.20;71.80;;;;;;5057067;28;20290;-88
2021/09/26 10:34:55;;;;;;;6.85;5.60;;;21.20;71.70;;;;;;5037115;28;20025;-81
2021/09/26 10:37:23;;;;;;;7.20;5.22;;;21.20;71.80;;;;;;5036685;28;20491;-84
2021/09/26 10:39:50;;;;;;;6.13;5.05;;;21.30;72.00;;;;;;5053778;28;20039;-88
2021/09/26 10:42:21;;;;;;;6.40;5.25;;;21.30;72.00;;;;;;5064962;28;20020;-86
2021/09/26 10:45:02;;;;;;;6.97;5.28;;;21.40;72.10;;;;;;5048063;28;20036;-86
2021/09/26 10:47:30;;;;;;;5.82;4.85;;;21.50;72.10;;;;;;5059207;28;20036;-86
2021/09/26 10:50:05;;;;;;;6.00;5.07;;;21.50;72.00;;;;;;5064425;28;20041;-87
2021/09/26 10:52:36;;;;;;;6.35;5.07;;;21.60;72.10;;;;;;5047773;28;20028;-87
2021/09/26 10:55:15;;;;;;;5.63;4.15;;;21.60;72.30;;;;;;5046600;28;20029;-86
2021/09/26 10:57:46;;;;;;;5.82;4.80;;;21.70;72.30;;;;;;5042761;28;20025;-85
2021/09/26 11:00:50;;;;;;;5.57;4.80;;;21.80;72.30;;;;;;5062214;28;20090;-87
2021/09/26 11:03:22;;;;;;;5.90;4.85;;;21.80;72.60;;;;;;5061128;28;20095;-86
2021/09/26 11:05:52;;;;;;;6.00;5.20;;;21.90;73.10;;;;;;5059283;28;20047;-87
2021/09/26 11:08:23;;;;;;;5.80;5.05;;;21.90;72.50;;;;;;5054304;28;20759;-87
2021/09/26 11:10:57;;;;;;;5.80;5.03;;;21.90;72.80;;;;;;5044764;28;20063;-87
2021/09/26 11:13:32;;;;;;;6.72;5.28;;;22.00;72.90;;;;;;5055218;28;20036;-86
2021/09/26 11:16:05;;;;;;;6.95;5.40;;;22.00;73.00;;;;;;5047985;28;20029;-87
2021/09/26 11:18:59;;;;;;;6.97;5.43;;;22.10;73.10;;;;;;5062253;28;20111;-87
2021/09/26 11:21:43;;;;;;;6.43;5.35;;;22.10;73.20;;;;;;5061227;28;20028;-87
2021/09/26 11:24:13;;;;;;;5.65;4.68;;;22.20;73.20;;;;;;5053275;28;20052;-87
2021/09/26 11:26:57;;;;;;;6.80;5.90;;;22.20;73.10;;;;;;5061208;28;20036;-87
2021/09/26 11:29:24;;;;;;;7.03;6.05;;;22.20;73.50;;;;;;5052668;28;20029;-86
2021/09/26 11:31:51;;;;;;;6.95;6.10;;;22.30;73.40;;;;;;5064102;28;20128;-87
2021/09/26 11:34:38;;;;;;;7.18;6.03;;;22.30;73.40;;;;;;5046468;28;20033;-87
2021/09/26 11:37:06;;;;;;;6.55;5.63;;;22.40;73.80;;;;;;5045468;28;20074;-87
2021/09/26 11:39:32;;;;;;;6.82;5.70;;;22.40;73.60;;;;;;5052446;28;20021;-86
2021/09/26 11:41:58;;;;;;;7.05;6.10;;;22.40;74.20;;;;;;5043892;28;20048;-87
2021/09/26 11:44:24;;;;;;;6.63;5.90;;;22.50;73.70;;;;;;5035423;28;20488;-87
2021/09/26 11:46:55;;;;;;;7.07;6.00;;;22.50;73.70;;;;;;5052965;28;20543;-87
2021/09/26 11:49:22;;;;;;;6.47;5.78;;;22.50;73.90;;;;;;5060029;28;20492;-87
2021/09/26 11:51:54;;;;;;;7.00;6.22;;;22.60;73.90;;;;;;5052388;28;20033;-87
2021/09/26 11:54:20;;;;;;;7.55;6.35;;;22.60;74.00;;;;;;5078248;28;20029;-87
2021/09/26 11:56:46;;;;;;;7.15;6.35;;;22.70;74.00;;;;;;5052444;28;20120;-87
2021/09/26 11:59:17;;;;;;;7.15;6.45;;;22.70;74.00;;;;;;5046221;28;20112;-87
2021/09/26 12:01:44;;;;;;;6.97;6.28;;;22.70;74.10;;;;;;5047064;28;20048;-87
2021/09/26 12:04:16;;;;;;;7.32;6.50;;;22.70;74.00;;;;;;5038681;28;20119;-87
2021/09/26 12:06:47;;;;;;;7.35;6.20;;;22.80;74.10;;;;;;5063484;28;20056;-87
2021/09/26 12:09:41;;;;;;;7.93;6.45;;;22.80;74.20;;;;;;5063312;28;20478;-86
2021/09/26 12:12:11;;;;;;;7.22;6.47;;;22.80;74.30;;;;;;5039143;28;20037;-86
2021/09/26 12:14:38;;;;;;;6.82;6.07;;;22.90;74.10;;;;;;5069192;28;20024;-87
2021/09/26 12:17:09;;;;;;;6.88;6.07;;;22.90;74.10;;;;;;5061009;28;20029;-87
2021/09/26 12:19:36;;;;;;;6.85;6.15;;;22.90;74.00;;;;;;5060209;28;20033;-87
2021/09/26 12:22:25;;;;;;;7.18;6.30;;;23.00;74.10;;;;;;5034902;28;20025;-87
2021/09/26 12:24:56;;;;;;;6.78;5.93;;;23.00;74.20;;;;;;5044777;28;20491;-88
2021/09/26 12:27:27;;;;;;;7.75;6.20;;;23.10;74.70;;;;;;5051719;28;20025;-87
2021/09/26 12:30:08;;;;;;;6.82;6.13;;;23.10;74.00;;;;;;5045430;28;20057;-88
2021/09/26 12:32:57;;;;;;;6.00;5.32;;;23.20;74.10;;;;;;5052274;28;20437;-87
2021/09/26 12:35:43;;;;;;;6.38;5.65;;;23.20;74.10;;;;;;5063840;28;20028;-88
2021/09/26 12:38:14;;;;;;;7.25;5.93;;;23.20;74.00;;;;;;5032424;28;20028;-86
2021/09/26 12:40:55;;;;;;;7.38;5.50;;;23.30;73.90;;;;;;5033768;28;20099;-81
2021/09/26 12:43:28;;;;;;;6.40;5.60;;;23.20;73.90;;;;;;5046693;28;20076;-83
2021/09/26 12:45:57;;;;;;;7.43;5.10;;;23.30;73.80;;;;;;5046874;28;20473;-81
2021/09/26 12:48:24;;;;;;;6.60;5.90;;;23.30;73.60;;;;;;5041468;28;20048;-83
2021/09/26 12:50:55;;;;;;;6.00;5.10;;;23.30;73.60;;;;;;5051451;28;20091;-83
2021/09/26 12:53:26;;;;;;;6.40;5.53;;;23.40;73.60;;;;;;5064157;28;20218;-85
2021/09/26 12:55:55;;;;;;;5.65;4.93;;;23.50;73.60;;;;;;5054328;28;20025;-82
2021/09/26 12:58:39;;;;;;;6.22;5.38;;;23.50;73.50;;;;;;5058062;28;20457;-83